Time;durP1;ratioP1;P1;durP2;ratioP2;P2;SDS_P1;SDS_P2;PMS_P1;PMS_P2;Temp;Humidity;BMP_temperature;BMP_pressure;BME280_temperature;BME280_humidity;BME280_pressure;Samples;Min_cycle;Max_cycle;Signal;HPM_P1;HPM_P2
2020/12/19 00:03:28;;;;;;;;;;;0.80;99.90;;;-1.96;95.20;96275.94;10312714;28;1977;-82
2020/12/19 00:08:30;;;;;;;;;;;0.30;99.90;;;-2.05;95.65;96272.56;10311538;28;1811;-83
2020/12/19 00:13:32;;;;;;;;;;;-0.90;99.90;;;-2.12;95.36;96270.84;10313916;28;1966;-80
2020/12/19 00:18:34;;;;;;;;;;;-1.00;99.90;;;-2.09;95.28;96262.59;10317931;28;1971;-81
2020/12/19 00:23:35;;;;;;;;;;;-1.00;99.90;;;-2.16;95.48;96249.31;10304753;28;1908;-80
2020/12/19 00:28:37;;;;;;;;;;;-0.30;99.90;;;-2.11;94.67;96246.13;10309718;28;1648;-82
2020/12/19 00:33:39;;;;;;;;;;;-1.00;99.90;;;-2.24;95.39;96233.59;10317134;28;2052;-81
2020/12/19 00:38:41;;;;;;;;;;;-1.10;99.90;;;-2.31;95.00;96228.25;10324268;28;1736;-80
2020/12/19 00:43:42;;;;;;;;;;;-0.70;99.90;;;-2.31;95.22;96227.44;10322890;28;2062;-82
2020/12/19 00:48:44;;;;;;;;;;;-2.90;99.90;;;-2.34;95.76;96231.25;10313983;28;1857;-82
2020/12/19 00:53:47;;;;;;;;;;;-0.40;99.90;;;-2.37;94.92;96221.06;10313140;28;1982;-82
2020/12/19 00:58:48;;;;;;;;;;;-1.20;99.90;;;-2.35;95.34;96219.09;10309995;28;1985;-83
2020/12/19 01:03:50;;;;;;;;;;;-1.20;99.90;;;-2.28;94.94;96217.38;10318004;28;1586;-83
2020/12/19 01:08:53;;;;;;;;;;;-1.20;99.90;;;-2.20;95.11;96216.44;10310056;28;1860;-82
2020/12/19 01:14:07;;;;;;;;;;;-1.10;99.90;;;-2.23;94.94;96222.06;10306698;28;1918;-82
2020/12/19 01:19:09;;;;;;;;;;;-1.00;99.90;;;-2.26;94.75;96230.34;10292994;28;2204;-83
2020/12/19 01:24:11;;;;;;;;;;;-1.10;99.90;;;-2.30;93.80;96221.97;10309689;28;1935;-82
2020/12/19 01:29:12;;;;;;;;;;;-1.20;99.90;;;-2.36;94.86;96227.16;10312945;28;1617;-83
2020/12/19 01:34:14;;;;;;;;;;;-1.10;99.90;;;-2.43;94.13;96210.44;10305687;28;2047;-82
2020/12/19 01:39:16;;;;;;;;;;;-1.20;99.90;;;-2.43;94.20;96216.53;10295294;28;1629;-82
2020/12/19 01:44:17;;;;;;;;;;;-1.30;99.90;;;-2.38;94.77;96214.16;10301734;28;1959;-82
2020/12/19 01:49:19;;;;;;;;;;;-1.20;99.90;;;-2.42;94.35;96212.88;10305514;28;1957;-83
2020/12/19 01:54:21;;;;;;;;;;;-1.20;99.90;;;-2.41;94.88;96206.66;10309814;28;2010;-82
2020/12/19 01:59:22;;;;;;;;;;;-1.30;99.90;;;-2.53;94.93;96197.56;10303566;28;1941;-82
2020/12/19 02:04:24;;;;;;;;;;;-1.40;99.90;;;-2.52;95.07;96199.19;10306659;28;1860;-83
2020/12/19 02:09:26;;;;;;;;;;;-1.40;99.90;;;-2.59;94.12;96198.28;10330069;28;1964;-81
2020/12/19 02:14:27;;;;;;;;;;;-1.40;99.90;;;-2.65;94.93;96191.13;10308101;28;2347;-80
2020/12/19 02:19:29;;;;;;;;;;;-1.50;99.90;;;-2.64;94.27;96183.03;10309113;28;1961;-80
2020/12/19 02:24:31;;;;;;;;;;;-1.50;99.90;;;-2.75;94.65;96181.66;10303115;28;1823;-82
2020/12/19 02:29:32;;;;;;;;;;;-0.10;99.90;;;-2.73;94.89;96182.31;10308370;28;2001;-83
2020/12/19 02:34:34;;;;;;;;;;;-1.60;99.90;;;-2.70;94.83;96175.06;10311668;28;2095;-82
2020/12/19 02:39:36;;;;;;;;;;;-1.60;99.90;;;-2.74;94.32;96172.78;10309760;28;1956;-83
2020/12/19 02:44:37;;;;;;;;;;;-1.60;99.90;;;-2.73;95.10;96169.16;10304864;28;2198;-82
2020/12/19 02:49:39;;;;;;;;;;;-0.30;99.90;;;-2.87;95.05;96166.50;10308252;28;1840;-82
2020/12/19 02:54:41;;;;;;;;;;;-0.60;99.90;;;-2.90;94.46;96167.69;10297763;28;2209;-80
2020/12/19 02:59:42;;;;;;;;;;;-1.80;99.90;;;-2.89;95.15;96158.78;10301124;28;2028;-81
2020/12/19 03:04:44;;;;;;;;;;;-1.80;99.90;;;-2.97;95.16;96158.88;10300222;28;2138;-82
2020/12/19 03:09:46;;;;;;;;;;;-1.80;99.90;;;-2.96;95.61;96157.88;10318294;28;2157;-82
2020/12/19 03:14:47;;;;;;;;;;;-1.80;99.90;;;-2.85;95.20;96160.09;10319544;28;2039;-82
2020/12/19 03:19:49;;;;;;;;;;;-1.80;99.90;;;-2.87;95.23;96161.25;10303647;28;1957;-82
2020/12/19 03:24:51;;;;;;;;;;;-1.70;99.90;;;-2.77;95.27;96164.44;10306827;28;2079;-83
2020/12/19 03:29:53;;;;;;;;;;;-1.70;99.90;;;-2.76;95.34;96158.16;10306309;28;2269;-82
2020/12/19 03:34:55;;;;;;;;;;;-1.70;99.90;;;-2.75;95.27;96154.53;10307808;28;2054;-82
2020/12/19 03:39:57;;;;;;;;;;;-1.60;99.90;;;-2.79;95.31;96159.38;10315007;28;2020;-81
2020/12/19 03:44:58;;;;;;;;;;;0.00;99.90;;;-2.80;95.72;96155.09;10304886;28;1981;-82
2020/12/19 03:50:00;;;;;;;;;;;-1.60;99.90;;;-2.64;95.11;96163.81;10316834;28;1486;-80
2020/12/19 03:55:02;;;;;;;;;;;-1.60;99.90;;;-2.72;94.57;96165.53;10303215;28;1914;-81
2020/12/19 04:00:03;;;;;;;;;;;-1.60;99.90;;;-2.73;95.10;96158.63;10311343;28;1567;-82
2020/12/19 04:05:05;;;;;;;;;;;-1.60;99.90;;;-2.83;95.52;96160.72;10319393;28;1816;-81
2020/12/19 04:10:07;;;;;;;;;;;-1.60;99.90;;;-2.70;95.12;96167.16;10299852;28;2118;-81
2020/12/19 04:15:08;;;;;;;;;;;-1.60;99.90;;;-2.74;95.31;96162.25;10313679;28;1899;-82
2020/12/19 04:20:10;;;;;;;;;;;-1.70;99.90;;;-2.78;94.59;96163.63;10314318;28;2071;-83
2020/12/19 04:25:13;;;;;;;;;;;-1.20;99.90;;;-2.67;94.99;96161.53;10309801;28;2107;-81
2020/12/19 04:30:15;;;;;;;;;;;-0.80;99.90;;;-2.76;94.74;96153.72;10313651;28;2096;-81
2020/12/19 04:35:16;;;;;;;;;;;-1.70;99.90;;;-2.81;94.96;96145.56;10311006;28;2003;-81
2020/12/19 04:40:18;;;;;;;;;;;-1.70;99.90;;;-2.75;94.75;96144.00;10317121;28;2106;-84
2020/12/19 04:45:19;;;;;;;;;;;-1.60;99.90;;;-2.75;95.21;96144.81;10324903;28;2003;-83
2020/12/19 04:50:21;;;;;;;;;;;-1.70;99.90;;;-2.75;95.99;96155.34;10317571;28;2130;-82
2020/12/19 04:55:23;;;;;;;;;;;-1.60;99.90;;;-2.59;95.43;96157.00;10316515;28;2103;-82
2020/12/19 05:00:25;;;;;;;;;;;-1.60;99.90;;;-2.63;94.67;96153.09;10301433;28;2200;-82
2020/12/19 05:05:26;;;;;;;;;;;-1.50;99.90;;;-2.62;95.49;96159.97;10321721;28;2221;-82
2020/12/19 05:10:28;;;;;;;;;;;-1.60;99.90;;;-2.47;95.40;96152.09;10337209;28;2289;-79
2020/12/19 05:15:30;;;;;;;;;;;-1.40;99.90;;;-2.60;94.22;96163.28;10336677;28;2211;-83
2020/12/19 05:20:31;;;;;;;;;;;-0.70;99.90;;;-2.76;93.81;96155.53;10345676;28;1514;-81
2020/12/19 05:25:33;;;;;;;;;;;0.30;99.90;;;-2.80;94.26;96149.00;10340700;28;1852;-81
2020/12/19 05:30:35;;;;;;;;;;;-0.60;99.90;;;-2.83;94.80;96158.06;10321676;28;1891;-84
2020/12/19 05:35:36;;;;;;;;;;;-1.70;99.90;;;-2.76;94.98;96155.53;10315956;28;2114;-83
2020/12/19 05:40:39;;;;;;;;;;;-1.70;99.90;;;-2.64;94.92;96169.06;10325521;28;1737;-81
2020/12/19 05:45:40;;;;;;;;;;;-0.40;99.90;;;-2.69;94.63;96160.91;10305018;28;2237;-82
2020/12/19 05:50:42;;;;;;;;;;;-1.60;99.90;;;-2.61;94.74;96172.16;10315166;28;1964;-82
2020/12/19 05:55:44;;;;;;;;;;;-1.60;99.90;;;-2.66;94.53;96163.19;10343241;28;1979;-81
2020/12/19 06:00:45;;;;;;;;;;;-1.50;99.90;;;-2.61;94.74;96161.63;10341490;28;1385;-82
2020/12/19 06:05:47;;;;;;;;;;;-1.60;99.90;;;-2.56;93.71;96166.34;10334601;28;1338;-83
2020/12/19 06:10:50;;;;;;;;;;;-1.50;99.90;;;-2.63;94.10;96173.31;10319143;28;2040;-82
2020/12/19 06:15:53;;;;;;;;;;;-1.50;99.90;;;-2.65;94.21;96177.97;10307583;28;2095;-82
2020/12/19 06:20:55;;;;;;;;;;;-1.60;99.90;;;-2.55;94.56;96183.75;10308575;28;2087;-81
2020/12/19 06:25:56;;;;;;;;;;;-1.40;99.90;;;-2.57;93.03;96177.88;10308751;28;1931;-81
2020/12/19 06:30:58;;;;;;;;;;;-1.50;99.90;;;-2.52;93.20;96180.78;10321318;28;2067;-82
2020/12/19 06:36:00;;;;;;;;;;;-1.50;99.90;;;-2.62;93.80;96178.41;10315182;28;1895;-81
2020/12/19 06:41:10;;;;;;;;;;;-1.50;99.90;;;-2.40;93.55;96174.06;10307263;28;1964;-83
2020/12/19 06:46:11;;;;;;;;;;;-1.40;99.90;;;-2.25;93.24;96181.94;10300934;28;2102;-82
2020/12/19 06:51:14;;;;;;;;;;;-1.20;99.90;;;-2.36;92.52;96185.03;10298876;28;2114;-82
2020/12/19 06:56:15;;;;;;;;;;;-1.30;99.90;;;-2.42;92.64;96186.56;10302504;28;2012;-80
2020/12/19 07:01:17;;;;;;;;;;;-1.30;99.90;;;-2.17;93.10;96180.00;10307411;28;2110;-82
2020/12/19 07:06:19;;;;;;;;;;;-1.10;99.90;;;-2.03;90.99;96196.00;10313441;28;1873;-83
2020/12/19 07:11:25;;;;;;;;;;;-1.00;99.90;;;-2.26;90.72;96185.56;10307596;28;2000;-83
2020/12/19 07:16:28;;;;;;;;;;;-1.00;99.90;;;-2.50;91.59;96189.31;10300001;28;1906;-82
2020/12/19 07:21:29;;;;;;;;;;;-1.30;99.90;;;-2.81;92.35;96187.66;10305523;28;1877;-81
2020/12/19 07:26:31;;;;;;;;;;;-1.60;99.90;;;-2.68;93.39;96196.72;10302242;28;1968;-82
2020/12/19 07:31:33;;;;;;;;;;;-1.60;99.90;;;-2.86;93.37;96197.91;10302458;28;2043;-83
2020/12/19 07:36:35;;;;;;;;;;;0.10;99.90;;;-2.87;93.57;96198.88;10299409;28;2063;-81
2020/12/19 07:41:43;;;;;;;;;;;-1.70;99.90;;;-2.58;93.94;96200.75;10315610;28;2055;-82
2020/12/19 07:46:45;;;;;;;;;;;-1.60;99.90;;;-2.58;93.89;96206.00;10324693;28;1955;-81
2020/12/19 07:51:47;;;;;;;;;;;-1.50;99.90;;;-2.61;93.73;96213.44;10318715;28;1842;-82
2020/12/19 07:56:49;;;;;;;;;;;-1.60;99.90;;;-2.63;93.50;96213.63;10314503;28;2028;-81
2020/12/19 08:01:51;;;;;;;;;;;-1.50;99.90;;;-2.58;93.73;96210.47;10328281;28;2118;-83
2020/12/19 08:06:53;;;;;;;;;;;-1.50;99.90;;;-2.52;93.25;96207.09;10298987;28;2019;-83
2020/12/19 08:12:07;;;;;;;;;;;-1.50;99.90;;;-2.52;93.34;96221.06;10314770;28;2003;-81
2020/12/19 08:17:09;;;;;;;;;;;-1.50;99.90;;;-2.59;93.79;96222.00;10316698;28;2008;-83
2020/12/19 08:22:11;;;;;;;;;;;-1.40;99.90;;;-2.30;93.38;96215.88;10311729;28;2095;-82
2020/12/19 08:27:31;;;;;;;;;;;-1.30;99.90;;;-2.49;93.32;96217.25;10312453;28;2118;-82
2020/12/19 08:32:33;;;;;;;;;;;-1.30;99.90;;;-2.54;93.88;96217.81;10325150;28;2168;-81
2020/12/19 08:37:34;;;;;;;;;;;-1.40;99.90;;;-2.44;94.31;96220.16;10327744;28;2133;-81
2020/12/19 08:42:36;;;;;;;;;;;-1.40;99.90;;;-2.30;94.10;96226.41;10312851;28;2063;-81
2020/12/19 08:47:38;;;;;;;;;;;-1.30;99.90;;;-2.07;92.47;96227.16;10313308;28;2085;-83
2020/12/19 08:52:39;;;;;;;;;;;-1.00;99.90;;;-2.10;93.14;96229.31;10314240;28;1976;-82
2020/12/19 08:57:41;;;;;;;;;;;-1.20;99.90;;;-1.85;92.32;96235.91;10320652;28;2090;-81
2020/12/19 09:02:43;;;;;;;;;;;-0.90;99.90;;;-1.60;92.28;96233.75;10323865;28;1571;-81
2020/12/19 09:07:45;;;;;;;;;;;-0.70;99.90;;;-1.14;90.56;96239.53;10316074;28;2227;-81
2020/12/19 09:12:47;;;;;;;;;;;-0.30;99.90;;;-1.05;89.48;96236.75;10328221;28;1958;-83
2020/12/19 09:17:49;;;;;;;;;;;-0.10;99.90;;;-1.17;89.13;96234.63;10317944;28;2059;-81
2020/12/19 09:23:02;;;;;;;;;;;0.50;99.90;;;-1.36;89.24;96237.88;10321421;28;1757;-81
2020/12/19 09:28:04;;;;;;;;;;;0.80;99.90;;;-1.24;89.75;96222.38;10332201;28;2043;-82
2020/12/19 09:33:06;;;;;;;;;;;-0.20;99.90;;;-1.43;89.55;96234.34;10326497;28;2146;-83
2020/12/19 09:38:07;;;;;;;;;;;-0.30;99.90;;;-1.17;90.47;96239.88;10336059;28;2107;-79
2020/12/19 09:43:09;;;;;;;;;;;-0.30;99.90;;;-0.95;88.93;96234.63;10322744;28;1920;-83
2020/12/19 09:48:11;;;;;;;;;;;-0.10;99.90;;;-0.92;87.68;96232.41;10336227;28;2157;-82
2020/12/19 09:53:12;;;;;;;;;;;0.20;99.90;;;-1.25;89.22;96226.84;10335062;28;1973;-82
2020/12/19 09:58:14;;;;;;;;;;;-0.10;99.90;;;-1.04;89.77;96217.28;10333318;28;1722;-82
2020/12/19 10:03:16;;;;;;;;;;;-0.10;99.90;;;-0.97;89.60;96212.84;10333248;28;2063;-81
2020/12/19 10:08:18;;;;;;;;;;;1.00;99.90;;;-0.49;88.20;96211.19;10318642;28;1968;-80
2020/12/19 10:13:19;;;;;;;;;;;1.50;99.90;;;-0.28;86.37;96219.03;10328269;28;2106;-81
2020/12/19 10:18:21;;;;;;;;;;;0.60;99.90;;;-0.32;86.21;96217.81;10331310;28;1940;-81
2020/12/19 10:23:23;;;;;;;;;;;0.60;99.90;;;-0.13;84.97;96218.09;10323430;28;2198;-79
2020/12/19 10:28:25;;;;;;;;;;;2.20;99.90;;;0.08;85.17;96201.31;10321780;28;2012;-79
2020/12/19 10:33:26;;;;;;;;;;;1.50;99.90;;;-0.11;85.35;96208.97;10323033;28;2126;-81
2020/12/19 10:38:28;;;;;;;;;;;0.70;99.90;;;0.05;85.63;96207.81;10313287;28;2165;-81
2020/12/19 10:43:33;;;;;;;;;;;1.00;99.90;;;0.74;82.49;96198.84;10308413;28;1954;-81
2020/12/19 10:48:35;;;;;;;;;;;1.50;99.90;;;0.82;81.80;96193.34;10315171;28;1912;-81
2020/12/19 10:53:37;;;;;;;;;;;1.80;99.90;;;1.06;81.26;96195.41;10310350;28;1966;-81
2020/12/19 10:58:38;;;;;;;;;;;2.00;99.90;;;1.35;80.60;96193.38;10307222;28;1973;-80
2020/12/19 11:03:40;;;;;;;;;;;2.20;99.90;;;1.43;79.34;96189.69;10312177;28;1876;-79
2020/12/19 11:08:42;;;;;;;;;;;2.60;99.90;;;1.03;80.41;96184.44;10311871;28;1756;-82
2020/12/19 11:13:54;;;;;;;;;;;2.40;99.90;;;0.62;81.77;96174.00;10322287;28;2010;-80
2020/12/19 11:18:56;;;;;;;;;;;1.90;99.90;;;0.11;84.60;96171.84;10317128;28;1967;-81
2020/12/19 11:23:58;;;;;;;;;;;1.50;99.90;;;-0.20;86.05;96173.13;10316602;28;1907;-81
2020/12/19 11:28:59;;;;;;;;;;;1.00;99.90;;;-0.20;85.84;96175.78;10337166;28;1614;-79
2020/12/19 11:34:01;;;;;;;;;;;0.90;99.90;;;-0.19;86.50;96163.38;10331941;28;1932;-80
2020/12/19 11:39:02;;;;;;;;;;;0.90;99.90;;;-0.31;87.15;96163.16;10339180;28;2007;-81
2020/12/19 11:44:11;;;;;;;;;;;1.00;99.90;;;-0.24;87.34;96156.06;10335319;28;1981;-79
2020/12/19 11:49:12;;;;;;;;;;;0.80;99.90;;;-0.07;86.85;96159.16;10329658;28;2288;-80
2020/12/19 11:54:14;;;;;;;;;;;0.90;99.90;;;0.03;86.62;96159.63;10331798;28;2192;-82
2020/12/19 11:59:16;;;;;;;;;;;1.00;99.90;;;-0.27;86.40;96172.28;10332799;28;1697;-82
2020/12/19 12:04:17;;;;;;;;;;;1.00;99.90;;;-0.36;87.88;96168.19;10330907;28;1724;-82
2020/12/19 12:09:19;;;;;;;;;;;0.70;99.90;;;-0.60;89.19;96162.38;10328739;28;2165;-81
2020/12/19 12:14:26;;;;;;;;;;;0.50;99.90;;;-0.31;88.21;96156.03;10335768;28;2067;-79
2020/12/19 12:19:28;;;;;;;;;;;0.60;99.90;;;-0.41;88.41;96154.75;10330163;28;2096;-80
2020/12/19 12:24:30;;;;;;;;;;;0.60;99.90;;;-0.42;88.74;96145.19;10330683;28;1991;-82
2020/12/19 12:29:32;;;;;;;;;;;0.60;99.90;;;-0.34;89.28;96150.31;10318672;28;1848;-83
2020/12/19 12:34:38;;;;;;;;;;;0.60;99.90;;;-0.47;88.14;96155.53;10325488;28;2014;-82
2020/12/19 12:39:39;;;;;;;;;;;0.70;99.90;;;-0.68;89.91;96159.88;10329203;28;1602;-79
2020/12/19 12:44:47;;;;;;;;;;;0.40;99.90;;;-0.62;90.81;96153.03;10342849;28;2024;-80
2020/12/19 12:49:49;;;;;;;;;;;2.30;99.90;;;-0.34;89.19;96145.84;10335563;28;2015;-82
2020/12/19 12:54:56;;;;;;;;;;;0.50;99.90;;;-0.57;89.57;96148.78;10326290;28;1962;-81
2020/12/19 13:00:05;;;;;;;;;;;2.10;99.90;;;-0.22;89.62;96143.47;10328343;28;1636;-81
2020/12/19 13:05:24;;;;;;;;;;;1.30;99.90;;;-0.04;88.53;96150.84;10311310;28;1328;-81
2020/12/19 13:10:27;;;;;;;;;;;1.00;99.90;;;0.12;87.67;96149.69;10324216;28;1764;-81
2020/12/19 13:15:35;;;;;;;;;;;1.20;99.90;;;-0.10;88.09;96149.81;10327315;28;1887;-81
2020/12/19 13:20:40;;;;;;;;;;;2.40;99.90;;;-0.49;89.74;96157.56;10327081;28;1604;-81
2020/12/19 13:25:42;;;;;;;;;;;1.60;99.90;;;-0.54;90.38;96160.78;10315970;28;1609;-83
2020/12/19 13:30:44;;;;;;;;;;;0.40;99.90;;;-0.70;90.83;96145.22;10319954;28;1435;-82
2020/12/19 13:35:46;;;;;;;;;;;0.40;99.90;;;-0.74;91.63;96142.19;10324883;28;1984;-83
2020/12/19 13:40:50;;;;;;;;;;;0.40;99.90;;;-0.52;91.12;96147.38;10323666;28;1652;-85
2020/12/19 13:45:52;;;;;;;;;;;0.50;99.90;;;-0.17;90.01;96145.53;10326571;28;1134;-85
2020/12/19 13:50:57;;;;;;;;;;;0.80;99.90;;;-0.01;89.63;96153.91;10326757;28;1545;-82
2020/12/19 13:55:58;;;;;;;;;;;2.30;99.90;;;0.13;88.84;96154.78;10322694;28;1914;-80
2020/12/19 14:01:00;;;;;;;;;;;1.10;99.90;;;0.23;88.46;96154.38;10325383;28;1624;-80
2020/12/19 14:06:02;;;;;;;;;;;1.20;99.90;;;0.54;87.74;96156.50;10315593;28;1896;-80
2020/12/19 14:11:03;;;;;;;;;;;2.10;99.90;;;0.10;87.54;96157.00;10312754;28;1846;-83
2020/12/19 14:16:05;;;;;;;;;;;1.40;99.90;;;-0.06;89.23;96152.88;10335088;28;2417;-82
2020/12/19 14:21:07;;;;;;;;;;;1.00;99.90;;;-0.18;90.29;96150.00;10328535;28;2007;-82
2020/12/19 14:26:08;;;;;;;;;;;0.90;99.90;;;0.03;89.77;96150.88;10325294;28;1941;-83
2020/12/19 14:31:10;;;;;;;;;;;1.00;99.90;;;-0.39;90.49;96152.72;10320478;28;1942;-83
2020/12/19 14:36:12;;;;;;;;;;;0.80;99.90;;;-0.43;91.59;96156.78;10317497;28;2177;-81
2020/12/19 14:41:14;;;;;;;;;;;0.60;99.90;;;-0.46;92.35;96151.88;10324825;28;1593;-81
2020/12/19 14:46:16;;;;;;;;;;;1.70;99.90;;;-0.54;92.37;96150.22;10316090;28;2036;-82
2020/12/19 14:51:19;;;;;;;;;;;0.50;99.90;;;-0.52;91.98;96153.47;10341132;28;2040;-81
2020/12/19 14:56:23;;;;;;;;;;;0.60;99.90;;;-0.71;92.62;96143.59;10324576;28;1895;-81
2020/12/19 15:01:29;;;;;;;;;;;0.50;99.90;;;-0.68;92.43;96151.97;10319913;28;1986;-83
2020/12/19 15:06:31;;;;;;;;;;;0.30;99.90;;;-0.75;93.15;96151.13;10323303;28;1934;-82
2020/12/19 15:11:34;;;;;;;;;;;1.30;99.90;;;-0.65;93.75;96148.94;10326076;28;1943;-83
2020/12/19 15:16:36;;;;;;;;;;;0.40;99.90;;;-0.43;93.19;96146.22;10314672;28;1973;-82
2020/12/19 15:21:38;;;;;;;;;;;0.60;99.90;;;-0.45;92.82;96145.56;10321080;28;1899;-79
2020/12/19 15:26:40;;;;;;;;;;;0.70;99.90;;;-0.63;93.08;96151.41;10313713;28;2083;-84
2020/12/19 15:31:44;;;;;;;;;;;0.50;99.90;;;-0.64;93.27;96160.31;10316556;28;1597;-82
2020/12/19 15:36:46;;;;;;;;;;;0.50;99.90;;;-0.57;92.89;96163.81;10311037;28;1886;-83
2020/12/19 15:41:51;;;;;;;;;;;2.00;99.90;;;-0.60;93.04;96166.84;10310459;28;1393;-83
2020/12/19 15:46:53;;;;;;;;;;;0.50;99.90;;;-0.75;93.17;96172.22;10309806;28;1990;-83
2020/12/19 15:51:55;;;;;;;;;;;0.90;99.90;;;-0.76;92.83;96167.13;10308852;28;1264;-83
2020/12/19 15:56:56;;;;;;;;;;;0.40;99.90;;;-0.59;93.14;96179.84;10299813;28;2201;-79
2020/12/19 16:02:14;;;;;;;;;;;0.50;99.90;;;-0.60;92.38;96175.56;10312064;28;2344;-80
2020/12/19 16:13:04;;;;;;;;;;;0.40;99.90;;;-0.84;92.09;96176.00;10323722;28;2345;-81
2020/12/19 16:18:06;;;;;;;;;;;0.30;99.90;;;-1.00;93.10;96179.75;10315889;28;2015;-83
2020/12/19 16:23:17;;;;;;;;;;;1.80;99.90;;;-1.18;93.68;96184.69;10295510;28;1845;-83
2020/12/19 16:28:33;;;;;;;;;;;1.80;99.90;;;-1.22;94.63;96189.50;10186787;29;1987;-82
2020/12/19 16:33:55;;;;;;;;;;;-0.10;99.90;;;-1.28;94.94;96192.09;10193199;29;1976;-80
2020/12/19 16:39:06;;;;;;;;;;;1.30;99.90;;;-1.21;95.34;96200.88;10195997;29;1773;-79
2020/12/19 16:44:21;;;;;;;;;;;-0.20;99.90;;;-1.13;94.69;96206.84;10117048;29;10636;-80
2020/12/19 16:49:32;;;;;;;;;;;-0.10;99.90;;;-1.16;94.54;96199.31;10179210;29;1704;-81
2020/12/19 16:55:46;;;;;;;;;;;-0.10;99.90;;;-1.18;94.13;96195.25;10302976;27;3064489;-80
2020/12/19 17:01:08;;;;;;;;;;;-0.10;99.90;;;-1.24;94.75;96211.81;10456004;28;1732;-80
2020/12/19 17:06:28;;;;;;;;;;;-0.10;99.90;;;-1.07;94.42;96209.75;10411609;28;1609;-82
2020/12/19 17:11:50;;;;;;;;;;;-0.10;99.90;;;-1.13;94.65;96213.97;10422836;28;92350;-81
2020/12/19 17:17:11;;;;;;;;;;;0.00;99.90;;;-1.26;94.60;96219.13;10433261;28;961;-83
2020/12/19 17:22:31;;;;;;;;;;;-0.10;99.90;;;-1.42;95.15;96220.16;10443996;28;1399;-81
2020/12/19 17:27:53;;;;;;;;;;;-0.20;99.90;;;-1.49;94.94;96221.91;10454261;28;1105;-80
2020/12/19 17:38:07;;;;;;;;;;;-0.30;99.90;;;-1.47;95.36;96227.81;10427959;28;91216;-82
2020/12/19 17:43:11;;;;;;;;;;;0.60;99.90;;;-1.43;95.37;96224.63;10420485;28;1712;-83
2020/12/19 17:48:13;;;;;;;;;;;1.00;99.90;;;-1.45;94.54;96231.09;10420109;28;1602;-82
2020/12/19 17:53:15;;;;;;;;;;;-0.40;99.90;;;-1.44;94.97;96248.56;10413466;28;1950;-81
2020/12/19 17:58:17;;;;;;;;;;;-0.30;99.90;;;-1.58;94.23;96237.06;10416264;28;1563;-81
2020/12/19 18:03:19;;;;;;;;;;;-0.40;99.90;;;-1.59;94.62;96245.13;10429918;28;1296;-80
2020/12/19 18:08:21;;;;;;;;;;;-0.50;99.90;;;-1.58;94.24;96237.06;10420162;28;1533;-81
2020/12/19 18:13:23;;;;;;;;;;;-0.50;99.90;;;-1.54;94.57;96237.47;10421174;28;1910;-82
2020/12/19 18:18:25;;;;;;;;;;;0.30;99.90;;;-1.50;94.78;96236.94;10424628;28;1302;-83
2020/12/19 18:23:26;;;;;;;;;;;-0.40;99.90;;;-1.45;94.47;96242.47;10426563;28;1316;-80
2020/12/19 18:28:29;;;;;;;;;;;-0.30;99.90;;;-1.41;93.64;96243.69;10428235;28;2016;-81
2020/12/19 18:33:31;;;;;;;;;;;0.60;99.90;;;-1.52;93.55;96249.50;10442513;28;1945;-83
2020/12/19 18:38:34;;;;;;;;;;;-0.40;99.90;;;-1.61;94.26;96252.41;10434416;28;1880;-83
2020/12/19 18:43:39;;;;;;;;;;;-0.50;99.90;;;-1.63;93.89;96245.50;10415272;28;2049;-81
2020/12/19 18:48:41;;;;;;;;;;;-0.50;99.90;;;-1.77;94.92;96248.19;10400700;28;1279;-81
2020/12/19 18:53:43;;;;;;;;;;;-0.20;99.90;;;-1.83;94.66;96244.47;10379052;28;2010;-84
2020/12/19 18:58:45;;;;;;;;;;;-0.70;99.90;;;-1.80;94.62;96244.09;10384479;28;1678;-83
2020/12/19 19:03:47;;;;;;;;;;;0.30;99.90;;;-1.69;94.58;96246.25;10386206;28;1986;-81
2020/12/19 19:08:49;;;;;;;;;;;0.70;99.90;;;-1.73;94.43;96250.25;10394518;28;1591;-81
2020/12/19 19:13:53;;;;;;;;;;;0.60;99.90;;;-1.64;95.42;96254.44;10384280;28;2020;-80
2020/12/19 19:18:55;;;;;;;;;;;0.70;99.90;;;-1.38;94.59;96258.34;10387586;28;1579;-84
2020/12/19 19:23:57;;;;;;;;;;;-0.30;99.90;;;-1.31;93.71;96259.22;10404997;28;1759;-84
2020/12/19 19:29:05;;;;;;;;;;;1.00;99.90;;;-1.29;93.13;96261.69;10405831;28;1540;-83
2020/12/19 19:34:08;;;;;;;;;;;-0.20;99.90;;;-1.53;93.05;96255.75;10397322;28;1954;-82
2020/12/19 19:39:11;;;;;;;;;;;-0.30;99.90;;;-1.73;93.82;96252.06;10392698;28;1905;-84
2020/12/19 19:44:13;;;;;;;;;;;1.10;99.90;;;-1.74;94.50;96253.88;10412445;28;1881;-83
2020/12/19 19:49:15;;;;;;;;;;;0.30;99.90;;;-1.72;94.73;96251.91;10422803;28;1972;-84
2020/12/19 19:54:19;;;;;;;;;;;0.80;99.90;;;-1.76;93.91;96239.28;10394391;28;1954;-83
2020/12/19 19:59:25;;;;;;;;;;;-0.70;99.90;;;-1.71;94.50;96247.44;10415621;28;1833;-83
2020/12/19 20:04:29;;;;;;;;;;;0.90;99.90;;;-1.56;94.91;96263.22;10400307;28;1937;-84
2020/12/19 20:09:31;;;;;;;;;;;-0.50;99.90;;;-1.47;94.21;96248.91;10394422;28;1846;-83
2020/12/19 20:14:36;;;;;;;;;;;0.80;99.90;;;-1.20;94.30;96271.13;10400219;28;1974;-83
2020/12/19 20:19:42;;;;;;;;;;;1.50;99.90;;;-1.28;92.56;96273.84;10398423;28;1740;-83
2020/12/19 20:24:48;;;;;;;;;;;-0.20;99.90;;;-1.73;92.46;96260.78;10403983;28;1488;-83
2020/12/19 20:29:53;;;;;;;;;;;-0.50;99.90;;;-1.80;94.30;96259.09;10400050;28;2020;-83
2020/12/19 20:34:55;;;;;;;;;;;1.00;99.90;;;-1.50;93.67;96252.75;10400637;28;2017;-85
2020/12/19 20:39:57;;;;;;;;;;;-0.60;99.90;;;-1.49;92.83;96253.56;10404254;28;1993;-85
2020/12/19 20:45:00;;;;;;;;;;;1.00;99.90;;;-1.39;93.01;96247.00;10401455;28;1698;-83
2020/12/19 20:50:02;;;;;;;;;;;1.10;99.90;;;-1.43;92.34;96244.91;10408209;28;2051;-82
2020/12/19 20:55:05;;;;;;;;;;;-0.30;99.90;;;-1.28;92.12;96243.03;10399760;28;2001;-83
2020/12/19 21:00:08;;;;;;;;;;;1.00;99.90;;;-1.31;92.19;96238.13;10404849;28;1965;-83
2020/12/19 21:05:13;;;;;;;;;;;-0.20;99.90;;;-1.14;91.71;96239.53;10381372;28;2020;-82
2020/12/19 21:10:14;;;;;;;;;;;1.00;99.90;;;-0.98;91.61;96253.44;10389287;28;1966;-83
2020/12/19 21:15:19;;;;;;;;;;;0.00;99.90;;;-1.02;90.56;96241.63;10407208;28;1970;-83
2020/12/19 21:20:21;;;;;;;;;;;1.40;99.90;;;-1.10;91.02;96259.22;10398065;28;1774;-83
2020/12/19 21:25:23;;;;;;;;;;;0.00;99.90;;;-1.23;91.41;96251.19;10397594;28;1997;-83
2020/12/19 21:30:26;;;;;;;;;;;0.30;99.90;;;-1.54;91.24;96254.09;10393422;28;1735;-82
2020/12/19 21:35:28;;;;;;;;;;;1.80;99.90;;;-1.46;91.84;96247.94;10389579;28;1978;-81
2020/12/19 21:40:30;;;;;;;;;;;-0.30;99.90;;;-1.53;92.53;96239.09;10389298;28;1961;-82
2020/12/19 21:45:32;;;;;;;;;;;-0.50;99.90;;;-1.48;91.74;96242.00;10413350;28;1744;-83
2020/12/19 21:50:34;;;;;;;;;;;1.20;99.90;;;-1.67;92.97;96244.22;10406185;28;1931;-83
2020/12/19 21:55:36;;;;;;;;;;;-0.50;99.90;;;-1.65;92.38;96238.81;10401450;28;1896;-83
2020/12/19 22:00:41;;;;;;;;;;;-0.50;99.90;;;-1.69;92.86;96237.53;10412019;28;1920;-84
2020/12/19 22:05:47;;;;;;;;;;;-0.60;99.90;;;-1.51;92.30;96266.13;10390920;28;1969;-83
2020/12/19 22:10:50;;;;;;;;;;;-0.50;99.90;;;-1.59;91.84;96260.94;10392861;28;2032;-84
2020/12/19 22:15:52;;;;;;;;;;;1.00;99.90;;;-1.53;91.48;96252.28;10397108;28;1940;-83
2020/12/19 22:20:54;;;;;;;;;;;-0.40;99.90;;;-1.53;91.72;96250.47;10396535;28;1958;-83
2020/12/19 22:25:56;;;;;;;;;;;1.60;99.90;;;-1.64;92.30;96251.78;10413714;28;1858;-81
2020/12/19 22:30:58;;;;;;;;;;;1.00;99.90;;;-1.60;92.11;96251.41;10401434;28;1723;-83
2020/12/19 22:36:00;;;;;;;;;;;-0.50;99.90;;;-1.52;91.93;96264.50;10400381;28;1910;-83
2020/12/19 22:41:02;;;;;;;;;;;-0.50;99.90;;;-1.39;91.97;96273.38;10398109;28;1970;-83
2020/12/19 22:46:04;;;;;;;;;;;-0.40;99.90;;;-1.21;91.25;96272.09;10403173;28;1965;-80
2020/12/19 22:51:05;;;;;;;;;;;-0.20;99.90;;;-1.33;91.46;96271.81;10400788;28;1994;-83
2020/12/19 22:56:08;;;;;;;;;;;-0.20;99.90;;;-1.23;91.33;96267.03;10398710;28;1968;-83
2020/12/19 23:01:10;;;;;;;;;;;-0.10;99.90;;;-1.16;90.46;96264.44;10412592;28;1885;-82
2020/12/19 23:06:12;;;;;;;;;;;0.00;99.90;;;-1.28;90.42;96260.66;10397935;28;1968;-81
2020/12/19 23:11:14;;;;;;;;;;;-0.10;99.90;;;-1.46;91.30;96256.66;10407056;28;2330;-83
2020/12/19 23:16:16;;;;;;;;;;;1.20;99.90;;;-1.58;92.10;96242.31;10400642;28;2091;-81
2020/12/19 23:21:18;;;;;;;;;;;0.20;99.90;;;-1.62;91.86;96246.31;10402479;28;1908;-82
2020/12/19 23:26:19;;;;;;;;;;;-0.50;99.90;;;-1.65;92.40;96233.53;10404081;28;2004;-82
2020/12/19 23:31:21;;;;;;;;;;;-0.50;99.90;;;-1.60;92.88;96223.22;10394663;28;2092;-83
2020/12/19 23:36:23;;;;;;;;;;;-0.60;99.90;;;-1.52;92.47;96223.13;10399160;28;1974;-83